Cruger, MS (38924)

9:16 AM CDT on September 02, 2014 (GMT -0500)
Greenwood-Leflore | Change Station
CLOSE
Current Station
Airport
Location: Greenwood,
Elevation: 154 ft
Nearby Weather Stations

Elev 154 ft 33.49 °N, 90.08 °W | Updated 23 minutes ago

Overcast
Overcast
79 °F
Feels Like 79 °F
N
7
Wind Variable Wind from South

Today
High -- | Low -- °F
--% Chance of Precip.
Yesterday
High -- | Low -- °F
Precip. -- in
6:35 AM 7:24 PM
First Quarter, 52% visible
Pressure 30.05 in
Visibility 10.0 miles
Clouds Overcast 1200 ft
Dew Point 74 °F
Humidity 84%
Rainfall 0.00 in
Snow Depth Not available.
UV 1 out of 12
Pollen 9.40 out of 12
Air Quality Not available.
Flu Activity Not available.
METAR KGWO 021353Z AUTO 19006KT 10SM OVC012 26/23 A3006 RMK AO2 SLP176 T02610233 TSNO

More Conditions Fewer Conditions

Pressure 30.05 in
Visibility 10.0 miles
Clouds Overcast 1200 ft
Dew Point 74 °F
Humidity 84%
Rainfall 0.00 in
Snow Depth Not available.
UV 1 out of 12
Pollen 9.40 out of 12
Air Quality Not available.
Flu Activity Not available.
METAR KGWO 021353Z AUTO 19006KT 10SM OVC012 26/23 A3006 RMK AO2 SLP176 T02610233 TSNO

More Conditions Fewer Conditions

10-Day Weather Forecast

Almanac

Astronomy

Sep. 02, 2014 Rise Set
Actual Time 6:35 AM CDT 7:24 PM CDT
Civil Twilight 6:10 AM CDT 7:49 PM CDT
Nautical Twilight 5:40 AM CDT 8:19 PM CDT
Astronomical Twilight 5:10 AM CDT 8:50 PM CDT
Moon 1:58 PM CDT No Moon Set
Length of Visible Light 13h 39m
Length of Day
12h 48m
Tomorrow will be 1m 59s shorter.
First Quarter, 52% of the Moon is Illuminated
Today
First Quarter
Sep 8
Full
Sep 15
Last Quarter
Sep 24
New
Oct 1
First Quarter

Today's Extremes

State Highs State Lows

Community

WunderPhotos

Upload Photos

1,749,677 photos uploaded!

WunderBlogs® & News

Nearby

Snow Depth

Station Depth Elevation
No new snow has been reported.

Earthquake Activity

City Distance Mag. Time & Date
No recent earthquake activity has been reported nearby.
Minimum magnitude displayed is 2.5.

Coastal Water Temperatures

Place Temperature
No Stations Reporting

Nearby Weather Stations